createdAt,value
2018-05-17T00:00:02.945Z,15.8
2018-05-17T00:05:17.566Z,15.6
2018-05-17T00:10:05.856Z,15.6
2018-05-17T00:15:02.718Z,15.6
2018-05-17T00:20:15.744Z,15.6
2018-05-17T00:25:04.934Z,15.5
2018-05-17T00:30:03.209Z,15.5
2018-05-17T00:35:35.401Z,15.5
2018-05-17T00:40:08.194Z,15.4
2018-05-17T00:45:05.054Z,15.4
2018-05-17T00:50:02.489Z,15.4
2018-05-17T00:55:17.925Z,15.3
2018-05-17T01:00:03.243Z,15.3
2018-05-17T01:05:05.095Z,15.1
2018-05-17T01:10:05.376Z,15
2018-05-17T01:15:13.266Z,14.9
2018-05-17T01:20:05.133Z,14.8
2018-05-17T01:25:02.970Z,14.8
2018-05-17T01:30:03.265Z,14.8
2018-05-17T01:35:07.694Z,14.5
2018-05-17T01:40:10.191Z,14.5
2018-05-17T01:45:08.029Z,14.4
2018-05-17T01:50:04.945Z,14.4
2018-05-17T01:55:05.140Z,14.4
2018-05-17T02:00:02.434Z,14.4
2018-05-17T02:05:05.419Z,14.4
2018-05-17T02:10:10.722Z,14.3
2018-05-17T02:15:07.590Z,14.3
2018-05-17T02:20:08.089Z,14.2
2018-05-17T02:25:05.824Z,14.2
2018-05-17T02:30:05.760Z,14.1
2018-05-17T02:35:02.431Z,14.1
2018-05-17T02:40:08.273Z,13.9
2018-05-17T02:45:05.164Z,13.8
2018-05-17T02:50:02.468Z,13.8
2018-05-17T02:55:02.804Z,13.7
2018-05-17T03:00:08.194Z,13.6
2018-05-17T03:05:10.010Z,13.5
2018-05-17T03:10:07.858Z,13.5
2018-05-17T03:15:03.122Z,13.5
2018-05-17T03:20:07.515Z,13.4
2018-05-17T03:25:17.975Z,13.3
2018-05-17T03:30:05.785Z,13.3
2018-05-17T03:35:07.593Z,13.2
2018-05-17T03:40:15.153Z,13.2
2018-05-17T03:45:02.866Z,13.2
2018-05-17T03:50:08.297Z,13.2
2018-05-17T03:55:04.963Z,13.2
2018-05-17T04:00:03.286Z,13.2
2018-05-17T04:05:02.637Z,13.1
2018-05-17T04:10:02.405Z,12.9
2018-05-17T04:15:05.197Z,12.8
2018-05-17T04:20:05.231Z,12.8
2018-05-17T04:25:10.449Z,12.8
2018-05-17T04:30:15.372Z,12.8
2018-05-17T04:35:03.066Z,12.9
2018-05-17T04:40:02.777Z,12.9
2018-05-17T04:45:03.016Z,0
2018-05-17T04:50:05.794Z,12.8
2018-05-17T04:55:02.648Z,12.8
2018-05-17T05:00:13.082Z,12.8
2018-05-17T05:05:05.751Z,12.9
2018-05-17T05:10:02.490Z,12.9
2018-05-17T05:15:02.747Z,12.9
2018-05-17T05:20:05.642Z,13.2
2018-05-17T05:25:07.410Z,13.2
2018-05-17T05:30:05.176Z,13.4
2018-05-17T05:35:02.956Z,13.3
2018-05-17T05:40:02.737Z,13.5
2018-05-17T05:45:03.077Z,13.7
2018-05-17T05:50:02.378Z,13.8
2018-05-17T05:55:07.745Z,14
2018-05-17T06:00:10.638Z,14.2
2018-05-17T06:05:22.664Z,14.3
2018-05-17T06:10:25.206Z,14.5
2018-05-17T06:15:15.109Z,14.6
2018-05-17T06:20:04.962Z,14.7
2018-05-17T06:25:10.451Z,14.7
2018-05-17T06:30:05.281Z,14.7
2018-05-17T06:35:08.189Z,14.7
2018-05-17T06:40:08.117Z,14.8
2018-05-17T06:45:15.918Z,14.8
2018-05-17T06:50:20.944Z,15
2018-05-17T06:55:22.731Z,15.2
2018-05-17T07:00:02.999Z,15.2
2018-05-17T07:05:03.307Z,15.3
2018-05-17T07:10:03.058Z,15.1
2018-05-17T07:15:05.842Z,15.3
2018-05-17T07:20:05.308Z,15.3
2018-05-17T07:25:03.090Z,15.3
2018-05-17T07:30:09.939Z,15.4
2018-05-17T07:35:02.652Z,15.4
2018-05-17T07:40:02.470Z,15.5
2018-05-17T07:45:05.240Z,15.8
2018-05-17T07:50:05.059Z,15.9
2018-05-17T07:55:07.922Z,15.9
2018-05-17T08:00:03.278Z,15.9
2018-05-17T08:05:02.746Z,15.9
2018-05-17T08:10:02.508Z,16
2018-05-17T08:15:02.864Z,16.1
2018-05-17T08:20:10.840Z,16.2
2018-05-17T08:25:10.152Z,16.1
2018-05-17T08:30:02.502Z,16.1
2018-05-17T08:35:23.095Z,16.3
2018-05-17T08:40:03.217Z,16.3
2018-05-17T08:45:12.636Z,16.2
2018-05-17T08:50:05.443Z,16.3
2018-05-17T08:55:05.836Z,16.3
2018-05-17T09:00:03.127Z,16.3
2018-05-17T09:05:02.508Z,16.3
2018-05-17T09:10:02.399Z,16.2
2018-05-17T09:15:02.869Z,16.2
2018-05-17T09:20:05.877Z,16.4
2018-05-17T09:25:05.527Z,16.6
2018-05-17T09:30:10.503Z,16.8
2018-05-17T09:35:03.224Z,16.8
2018-05-17T09:40:10.582Z,16.7
2018-05-17T09:45:05.844Z,16.8
2018-05-17T09:50:05.653Z,16.9
2018-05-17T09:55:05.094Z,17.2
2018-05-17T10:00:02.582Z,17.2
2018-05-17T10:05:15.588Z,16
2018-05-17T10:10:10.017Z,16.9
2018-05-17T10:15:02.771Z,16.8
2018-05-17T10:20:03.189Z,17.1
2018-05-17T10:25:05.136Z,16.8
2018-05-17T10:30:04.975Z,16.9
2018-05-17T10:35:05.369Z,13.8
2018-05-17T10:40:05.667Z,17.1
2018-05-17T10:45:27.910Z,17.3
2018-05-17T10:50:05.800Z,17.5
2018-05-17T10:55:17.798Z,17.5
2018-05-17T11:00:03.090Z,17.6
2018-05-17T11:05:10.018Z,17.8
2018-05-17T11:10:17.943Z,18
2018-05-17T11:15:02.518Z,18
2018-05-17T11:20:05.426Z,18.4
2018-05-17T11:25:03.193Z,18.3
2018-05-17T11:30:04.997Z,18.5
2018-05-17T11:35:05.378Z,18.6
2018-05-17T11:40:05.643Z,18.7
2018-05-17T11:45:07.571Z,18.7
2018-05-17T11:50:03.082Z,18.7
2018-05-17T11:55:04.976Z,19
2018-05-17T12:00:15.935Z,19.1
2018-05-17T12:05:02.566Z,19.1
2018-05-17T12:10:03.347Z,19.4
2018-05-17T12:15:07.786Z,19.7
2018-05-17T12:20:15.937Z,19.7
2018-05-17T12:25:05.065Z,19.7
2018-05-17T12:30:05.897Z,19.7
2018-05-17T12:35:05.279Z,20.2
2018-05-17T12:40:05.595Z,20.3
2018-05-17T12:45:05.204Z,20.4
2018-05-17T12:50:15.213Z,20.3
2018-05-17T12:55:08.041Z,20.4
2018-05-17T13:00:04.974Z,20.5
2018-05-17T13:05:17.944Z,20.8
2018-05-17T13:10:05.205Z,20.9
2018-05-17T13:15:03.055Z,20.9
2018-05-17T13:20:05.012Z,21.3
2018-05-17T13:25:02.829Z,21.4
2018-05-17T13:30:05.687Z,22.5
2018-05-17T13:35:05.284Z,23.6
2018-05-17T13:40:05.659Z,23.6
2018-05-17T13:45:05.005Z,24.1
2018-05-17T13:50:03.307Z,24
2018-05-17T13:55:10.407Z,25.5
2018-05-17T14:00:02.823Z,25.5
2018-05-17T14:05:02.785Z,25.9
2018-05-17T14:10:05.231Z,26.7
2018-05-17T14:15:08.253Z,27.3
2018-05-17T14:20:02.782Z,27.4
2018-05-17T14:25:03.221Z,26.5
2018-05-17T14:30:12.691Z,25.4
2018-05-17T14:35:03.192Z,25.4
2018-05-17T14:40:08.052Z,24.5
2018-05-17T14:45:04.966Z,23.9
2018-05-17T14:50:07.411Z,24.1
2018-05-17T14:55:02.795Z,24.1
2018-05-17T15:00:05.711Z,22.9
2018-05-17T15:05:05.139Z,23
2018-05-17T15:10:02.953Z,23
2018-05-17T15:15:02.578Z,23.7
2018-05-17T15:20:05.575Z,23.2
2018-05-17T15:25:04.973Z,23.1
2018-05-17T15:30:07.434Z,23.1
2018-05-17T15:35:05.295Z,23.1
2018-05-17T15:40:05.777Z,23
2018-05-17T15:45:07.722Z,22.7
2018-05-17T15:50:15.043Z,22.4
2018-05-17T15:55:05.253Z,22.5
2018-05-17T16:00:02.599Z,22.5
2018-05-17T16:05:05.557Z,23.4
2018-05-17T16:10:02.358Z,23.4
2018-05-17T16:15:13.030Z,22.5
2018-05-17T16:20:05.508Z,22.6
2018-05-17T16:25:12.500Z,22.7
2018-05-17T16:30:10.443Z,22
2018-05-17T16:35:03.222Z,22
2018-05-17T16:40:05.687Z,21.6
2018-05-17T16:45:02.445Z,21.6
2018-05-17T16:50:05.615Z,21.3
2018-05-17T16:55:05.085Z,21.1
2018-05-17T17:00:02.472Z,21.2
2018-05-17T17:05:05.440Z,20.7
2018-05-17T17:10:03.337Z,1.5
2018-05-17T17:15:02.734Z,20.8
2018-05-17T17:20:08.194Z,20.6
2018-05-17T17:25:02.493Z,20.7
2018-05-17T17:30:07.855Z,20.6
2018-05-17T17:35:10.809Z,20.4
2018-05-17T17:40:02.647Z,20.4
2018-05-17T17:45:02.977Z,20.2
2018-05-17T17:50:08.419Z,19.7
2018-05-17T17:55:05.195Z,19.6
2018-05-17T18:00:05.026Z,19.4
2018-05-17T18:05:02.815Z,19.4
2018-05-17T18:10:05.145Z,19.1
2018-05-17T18:15:02.988Z,19.1
2018-05-17T18:20:05.042Z,18.9
2018-05-17T18:25:05.358Z,18.9
2018-05-17T18:30:05.247Z,18.8
2018-05-17T18:35:08.081Z,18.7
2018-05-17T18:40:05.355Z,18.7
2018-05-17T18:45:13.319Z,18.5
2018-05-17T18:50:02.623Z,18.5
2018-05-17T18:55:10.510Z,18.2
2018-05-17T19:00:05.363Z,18.2
2018-05-17T19:05:04.967Z,18.1
2018-05-17T19:10:02.675Z,18.1
2018-05-17T19:15:08.155Z,17.8
2018-05-17T19:20:05.110Z,17.7
2018-05-17T19:25:05.531Z,17.6
2018-05-17T19:30:05.438Z,17.5
2018-05-17T19:35:05.687Z,17.3
2018-05-17T19:40:02.415Z,17.2
2018-05-17T19:45:02.704Z,17.1
2018-05-17T19:50:12.679Z,16.8
2018-05-17T19:55:08.051Z,16.8
2018-05-17T20:00:02.380Z,16.8
2018-05-17T20:05:07.778Z,16.5
2018-05-17T20:10:02.463Z,16.5
2018-05-17T20:15:02.905Z,16.3
2018-05-17T20:20:03.307Z,16.1
2018-05-17T20:25:05.103Z,15.9
2018-05-17T20:30:02.561Z,15.9
2018-05-17T20:35:07.980Z,15.5
2018-05-17T20:40:05.215Z,15.4
2018-05-17T20:45:03.188Z,15.4
2018-05-17T20:50:05.115Z,15.1
2018-05-17T20:55:08.003Z,14.9
2018-05-17T21:00:04.971Z,14.8
2018-05-17T21:05:02.813Z,14.9
2018-05-17T21:10:02.658Z,14.7
2018-05-17T21:15:02.935Z,14.6
2018-05-17T21:20:05.785Z,14.3
2018-05-17T21:25:22.788Z,14.2
2018-05-17T21:30:03.068Z,14.2
2018-05-17T21:35:02.369Z,14.1
2018-05-17T21:40:03.056Z,13.9
2018-05-17T21:45:04.875Z,13.7
2018-05-17T21:50:03.108Z,13.7
2018-05-17T21:55:22.648Z,13.4
2018-05-17T22:00:15.629Z,13.3
2018-05-17T22:05:03.245Z,13.3
2018-05-17T22:10:05.504Z,13.2
2018-05-17T22:15:03.259Z,13.2
2018-05-17T22:20:02.597Z,13.2
2018-05-17T22:25:02.893Z,13.1
2018-05-17T22:30:03.200Z,13
2018-05-17T22:35:02.449Z,13.1
2018-05-17T22:40:25.922Z,12.9
2018-05-17T22:45:03.147Z,12.9
2018-05-17T22:50:04.985Z,12.7
2018-05-17T22:55:05.314Z,12.6
2018-05-17T23:00:05.111Z,12.6
2018-05-17T23:05:05.326Z,12.6
2018-05-17T23:10:10.683Z,12.5
2018-05-17T23:15:02.429Z,12.5
2018-05-17T23:20:02.785Z,12.3
2018-05-17T23:25:03.088Z,12.3
2018-05-17T23:30:05.875Z,12.2
2018-05-17T23:35:02.625Z,12.2
2018-05-17T23:40:10.063Z,12.2
2018-05-17T23:45:07.961Z,12.1
2018-05-17T23:50:04.938Z,12.1
2018-05-17T23:55:10.315Z,12.1
